Royersford, Pennsylvania
Current Conditions -  °F | °C
As of 6:54 AM on Tuesday 27 Jan 2015 (Local Time) from KPTW Reporting Station
Light Snow Light Snow  
Wind Chill: 15°   Ceiling: 4500
Heat Index: 25°   Visibility: 7mi
Dew Point: 19°   Wind: 10mph
Humidity: 78%   Direction: 320°NW
Pressure: 29.74"   Gusts: NA
Location:  40.18°N, 75.54°W
Report Text: KPTW 271154Z AUTO 32009KT 7SM -SN OVC045 M04/M07 A2974 RMK AO2 SLP072 P0000 60001 70003 T10391072 11033 21050 51007
Loading
Personal Weather Stations






























Interactive Weather Map New forecast layout! Learn more

10-Day Weather Forecast

Advertisements
Track Severe Weather on mobile